Time;durP1;ratioP1;P1;durP2;ratioP2;P2;SDS_P1;SDS_P2;PMS_P1;PMS_P2;Temp;Humidity;BMP_temperature;BMP_pressure;BME280_temperature;BME280_humidity;BME280_pressure;Samples;Min_cycle;Max_cycle;Signal;HPM_P1;HPM_P2
2024/01/22 00:00:31;;;;;;;10.37;5.87;;;;;;;-3.92;100.00;101798.19;5045366;28;20040;-67
2024/01/22 00:02:56;;;;;;;13.17;5.87;;;;;;;-3.83;100.00;101800.50;5054207;28;20040;-68
2024/01/22 00:05:22;;;;;;;10.83;5.90;;;;;;;-3.91;100.00;101774.72;5038810;28;20025;-69
2024/01/22 00:07:47;;;;;;;8.23;6.17;;;;;;;-3.82;100.00;101791.78;5054977;28;20041;-68
2024/01/22 00:10:13;;;;;;;11.27;6.10;;;;;;;-4.03;100.00;101763.84;5051774;28;20041;-70
2024/01/22 00:12:40;;;;;;;12.47;6.73;;;;;;;-3.90;100.00;101796.38;5057986;28;20048;-67
2024/01/22 00:15:06;;;;;;;9.27;6.63;;;;;;;-3.91;100.00;101794.69;5040808;28;20041;-68
2024/01/22 00:17:35;;;;;;;10.82;6.93;;;;;;;-3.85;100.00;101794.50;5036189;28;20148;-68
2024/01/22 00:20:00;;;;;;;10.40;6.35;;;;;;;-3.80;100.00;101790.00;5033436;28;20507;-66
2024/01/22 00:22:26;;;;;;;10.30;5.40;;;;;;;-3.99;100.00;101749.84;5033504;28;20095;-66
2024/01/22 00:24:51;;;;;;;11.40;7.20;;;;;;;-4.03;100.00;101743.03;5036249;28;20485;-65
2024/01/22 00:27:17;;;;;;;9.63;6.87;;;;;;;-3.85;100.00;101776.28;5042908;28;20051;-69
2024/01/22 00:29:42;;;;;;;8.40;5.67;;;;;;;-3.94;100.00;101761.81;5037424;28;20046;-65
2024/01/22 00:32:08;;;;;;;11.17;6.53;;;;;;;-3.89;100.00;101752.09;5041458;28;20033;-66
2024/01/22 00:34:36;;;;;;;9.90;5.30;;;;;;;-3.89;100.00;101746.03;5041846;28;20083;-65
2024/01/22 00:37:02;;;;;;;7.20;4.97;;;;;;;-3.85;100.00;101764.13;5042788;28;20094;-67
2024/01/22 00:39:27;;;;;;;10.93;6.40;;;;;;;-3.82;100.00;101763.16;5036555;28;20038;-67
2024/01/22 00:41:53;;;;;;;8.27;5.63;;;;;;;-3.89;100.00;101746.03;5034863;28;20124;-67
2024/01/22 00:44:18;;;;;;;7.07;5.30;;;;;;;-3.95;100.00;101735.81;5034091;28;20481;-68
2024/01/22 00:46:44;;;;;;;10.90;6.73;;;;;;;-3.95;100.00;101739.28;5033673;28;20355;-66
2024/01/22 00:49:09;;;;;;;11.07;5.90;;;;;;;-4.93;100.00;101595.69;5038595;28;20037;-68
2024/01/22 00:51:36;;;;;;;12.93;6.57;;;;;;;-3.93;100.00;101775.66;5049420;28;20140;-69
2024/01/22 00:54:02;;;;;;;9.50;6.38;;;;;;;-4.00;100.00;101763.75;5052440;28;20132;-68
2024/01/22 00:56:27;;;;;;;10.47;6.30;;;;;;;-3.85;100.00;101771.06;5052169;28;20123;-70
2024/01/22 00:58:53;;;;;;;8.87;6.63;;;;;;;-3.86;100.00;101774.56;5047318;28;20921;-68
2024/01/22 01:01:20;;;;;;;8.67;6.13;;;;;;;-4.06;100.00;101739.59;5033083;28;20041;-67
2024/01/22 01:03:45;;;;;;;12.40;6.57;;;;;;;-3.92;100.00;101752.19;5032955;28;20052;-68
2024/01/22 01:06:11;;;;;;;10.13;6.30;;;;;;;-4.03;100.00;101736.06;5033061;28;20116;-68
2024/01/22 01:08:36;;;;;;;9.30;6.03;;;;;;;-3.95;100.00;101741.03;5032791;28;20040;-67
2024/01/22 01:11:01;;;;;;;10.90;5.80;;;;;;;-4.04;100.00;101720.50;5032966;28;20117;-68
2024/01/22 01:13:27;;;;;;;8.60;5.80;;;;;;;-3.90;100.00;101749.53;5031575;28;20033;-67
2024/01/22 01:15:53;;;;;;;11.17;7.07;;;;;;;-3.90;100.00;101746.94;5033376;28;20464;-67
2024/01/22 01:18:19;;;;;;;11.40;7.80;;;;;;;-4.09;100.00;101721.47;4965958;28;1980144;-68
2024/01/22 01:20:44;;;;;;;8.30;6.43;;;;;;;-3.99;100.00;101734.22;5036044;28;20045;-68
2024/01/22 01:23:10;;;;;;;8.60;6.00;;;;;;;-4.38;100.00;101669.47;5036990;28;20748;-69
2024/01/22 01:25:36;;;;;;;10.13;7.00;;;;;;;-4.18;100.00;101703.53;5033978;28;20136;-68
2024/01/22 01:28:02;;;;;;;8.77;6.10;;;;;;;-4.13;100.00;101714.66;5032622;28;20081;-66
2024/01/22 01:30:28;;;;;;;15.00;7.37;;;;;;;-4.10;100.00;101726.72;5036114;28;20386;-65
2024/01/22 01:32:53;;;;;;;9.70;6.10;;;;;;;-4.14;100.00;101715.56;5039814;28;20108;-66
2024/01/22 01:35:19;;;;;;;9.63;6.60;;;;;;;-4.15;100.00;101706.03;5038507;28;20417;-67
2024/01/22 01:37:44;;;;;;;8.40;6.17;;;;;;;-4.21;100.00;101692.38;5039557;28;20034;-67
2024/01/22 01:40:11;;;;;;;10.17;6.73;;;;;;;-4.19;100.00;101701.84;5044181;28;20524;-67
2024/01/22 01:42:36;;;;;;;12.10;7.18;;;;;;;-4.19;100.00;101704.44;5033622;28;20037;-64
2024/01/22 01:45:02;;;;;;;11.83;6.47;;;;;;;-4.46;100.00;101658.44;5037622;28;20093;-67
2024/01/22 01:47:29;;;;;;;10.75;6.57;;;;;;;-4.29;100.00;101682.22;5040919;28;20099;-65
2024/01/22 01:49:55;;;;;;;11.47;6.70;;;;;;;-4.37;100.00;101663.38;5043511;28;20492;-66
2024/01/22 01:52:20;;;;;;;10.67;6.40;;;;;;;-4.26;100.00;101684.72;5042708;28;20037;-68
2024/01/22 01:54:49;;;;;;;11.60;7.13;;;;;;;-4.37;100.00;101674.63;5032741;28;20516;-66
2024/01/22 01:57:16;;;;;;;9.48;6.50;;;;;;;-4.32;100.00;101676.25;5016252;28;20124;-68
2024/01/22 01:59:43;;;;;;;12.82;6.25;;;;;;;-4.93;100.00;101574.91;5035666;28;20045;-68
2024/01/22 02:02:09;;;;;;;8.43;7.28;;;;;;;-4.26;100.00;101670.88;5034824;28;20037;-68
2024/01/22 02:04:34;;;;;;;10.60;6.03;;;;;;;-4.21;100.00;101666.38;5031418;28;20061;-68
2024/01/22 02:07:02;;;;;;;9.90;7.40;;;;;;;-4.21;100.00;101658.56;5033385;28;20037;-67
2024/01/22 02:09:48;;;;;;;11.20;7.85;;;;;;;-4.20;100.00;101665.47;5015238;28;20120;-67
2024/01/22 02:12:16;;;;;;;13.50;8.60;;;;;;;-4.29;100.00;101648.41;5032739;28;20065;-69
2024/01/22 02:14:41;;;;;;;12.35;8.98;;;;;;;-4.34;100.00;101637.25;5032376;28;20041;-66
2024/01/22 02:17:10;;;;;;;14.80;7.90;;;;;;;-4.17;100.00;101665.38;5032130;28;20488;-68
2024/01/22 02:19:36;;;;;;;11.75;8.57;;;;;;;-4.40;100.00;101627.06;5032129;28;20125;-66
2024/01/22 02:22:01;;;;;;;11.70;6.60;;;;;;;-4.27;100.00;101651.81;5032324;28;20132;-66
2024/01/22 02:24:27;;;;;;;10.60;7.33;;;;;;;-4.67;100.00;101593.19;5032163;28;20040;-67
2024/01/22 02:26:52;;;;;;;9.93;6.87;;;;;;;-4.30;100.00;101666.66;5032132;28;20049;-67
2024/01/22 02:29:18;;;;;;;12.57;7.90;;;;;;;-4.29;100.00;101650.16;5032149;28;20540;-68
2024/01/22 02:31:45;;;;;;;10.90;7.70;;;;;;;-4.52;100.00;101619.63;5032074;28;20152;-68
2024/01/22 02:34:11;;;;;;;9.50;7.05;;;;;;;-4.79;100.00;101583.16;5030905;28;20489;-67
2024/01/22 02:36:37;;;;;;;16.47;8.37;;;;;;;-4.59;100.00;101621.56;5032533;28;20052;-67
2024/01/22 02:39:03;;;;;;;10.60;6.80;;;;;;;-4.60;100.00;101632.88;5032068;28;20268;-67
2024/01/22 02:41:28;;;;;;;7.97;6.07;;;;;;;-4.64;100.00;101627.78;5032377;28;20041;-68
2024/01/22 02:43:53;;;;;;;12.53;8.23;;;;;;;-5.04;100.00;101563.97;5032379;28;20043;-68
2024/01/22 02:46:19;;;;;;;13.00;7.13;;;;;;;-4.72;100.00;101628.88;5014961;28;20049;-67
2024/01/22 02:48:44;;;;;;;11.27;7.67;;;;;;;-4.74;100.00;101650.59;5030958;28;20033;-70
2024/01/22 02:51:10;;;;;;;11.37;6.77;;;;;;;-5.25;100.00;101564.56;5032212;28;20497;-64
2024/01/22 02:53:36;;;;;;;12.80;7.73;;;;;;;-4.97;100.00;101617.47;5032145;28;20029;-64
2024/01/22 02:56:01;;;;;;;10.20;7.57;;;;;;;-5.07;100.00;101616.88;5033628;28;20512;-67
2024/01/22 02:58:29;;;;;;;14.03;7.27;;;;;;;-5.01;100.00;101626.25;5031965;28;20037;-68
2024/01/22 03:00:54;;;;;;;11.25;7.97;;;;;;;-5.10;100.00;101609.16;5032011;28;20485;-67
2024/01/22 03:03:20;;;;;;;12.20;7.70;;;;;;;-5.24;100.00;101581.88;5030594;28;20095;-67
2024/01/22 03:05:45;;;;;;;12.27;7.83;;;;;;;-5.32;100.00;101558.72;5032144;28;20054;-68
2024/01/22 03:08:11;;;;;;;12.13;8.00;;;;;;;-5.02;100.00;101602.00;5030963;28;20099;-70
2024/01/22 03:10:36;;;;;;;13.20;7.47;;;;;;;-4.97;100.00;101604.47;5030886;28;20398;-68
2024/01/22 03:13:02;;;;;;;11.60;8.80;;;;;;;-5.16;100.00;101585.13;5031851;28;20033;-66
2024/01/22 03:15:27;;;;;;;13.07;7.20;;;;;;;-5.07;100.00;101608.22;5031796;28;20076;-66
2024/01/22 03:17:58;;;;;;;12.80;7.77;;;;;;;-5.14;100.00;101593.72;5030848;28;20057;-67
2024/01/22 03:20:24;;;;;;;13.07;7.65;;;;;;;-5.01;100.00;101605.44;5063809;28;20048;-66
2024/01/22 03:22:49;;;;;;;12.23;7.97;;;;;;;-5.04;100.00;101600.34;5030328;28;20401;-67
2024/01/22 03:25:15;;;;;;;10.80;7.27;;;;;;;-5.27;100.00;101566.38;5031902;28;20029;-66
2024/01/22 03:27:41;;;;;;;11.17;7.17;;;;;;;-5.17;100.00;101593.81;5031627;28;20560;-66
2024/01/22 03:30:07;;;;;;;14.57;8.07;;;;;;;-5.24;100.00;101580.13;5031564;28;20092;-67
2024/01/22 03:32:33;;;;;;;13.93;8.77;;;;;;;-5.25;100.00;101586.19;5031730;28;20440;-68
2024/01/22 03:34:58;;;;;;;14.70;9.10;;;;;;;-5.21;100.00;101595.59;5013878;28;20029;-67
2024/01/22 03:37:24;;;;;;;15.00;9.10;;;;;;;-5.25;100.00;101577.56;5031789;28;20128;-68
2024/01/22 03:39:50;;;;;;;14.80;8.90;;;;;;;-5.35;100.00;101572.63;5032105;28;20095;-67
2024/01/22 03:42:16;;;;;;;14.40;9.43;;;;;;;-5.35;100.00;101588.22;5031490;28;20033;-68
2024/01/22 03:44:41;;;;;;;11.67;8.20;;;;;;;-5.37;100.00;101574.41;5034248;28;20048;-67
2024/01/22 03:47:07;;;;;;;16.23;8.57;;;;;;;-5.58;100.00;101541.25;5041976;28;20041;-68
2024/01/22 03:49:32;;;;;;;13.70;9.40;;;;;;;-5.34;100.00;101576.09;5031712;28;20455;-67
2024/01/22 03:51:58;;;;;;;16.00;9.10;;;;;;;-5.51;100.00;101541.94;5031492;28;20042;-69
2024/01/22 03:54:23;;;;;;;11.30;8.10;;;;;;;-5.35;100.00;101554.47;5031868;28;20041;-70
2024/01/22 03:56:49;;;;;;;17.67;9.20;;;;;;;-5.32;100.00;101554.38;5051147;28;20515;-69
2024/01/22 03:59:14;;;;;;;16.80;8.97;;;;;;;-5.27;100.00;101555.97;5051698;28;20044;-67
2024/01/22 04:01:40;;;;;;;17.43;10.03;;;;;;;-5.28;100.00;101531.75;5051941;28;20051;-65
2024/01/22 04:04:05;;;;;;;16.17;8.87;;;;;;;-5.15;100.00;101545.28;5052522;28;20055;-69
2024/01/22 04:06:31;;;;;;;15.50;9.37;;;;;;;-5.26;100.00;101523.94;5051879;28;20130;-68
2024/01/22 04:08:57;;;;;;;14.50;9.20;;;;;;;-5.14;100.00;101537.44;5050626;28;20033;-69
2024/01/22 04:11:22;;;;;;;18.67;9.67;;;;;;;-5.43;100.00;101460.38;5056154;28;20036;-69
2024/01/22 04:13:48;;;;;;;14.70;10.07;;;;;;;-4.93;100.00;101509.97;5071143;28;20017;-67
2024/01/22 04:16:14;;;;;;;14.10;9.90;;;;;;;-4.81;100.00;101499.22;5076888;28;20041;-66
2024/01/22 04:18:43;;;;;;;16.27;8.68;;;;;;;-4.79;100.00;101507.81;5070205;28;20064;-69
2024/01/22 04:21:10;;;;;;;;;;;;;;;-4.63;100.00;101533.31;5077439;28;20067;-67
2024/01/22 04:23:36;;;;;;;12.45;8.95;;;;;;;-4.68;100.00;101512.66;5074046;28;19983;-67
2024/01/22 04:26:03;;;;;;;19.38;9.63;;;;;;;-4.65;100.00;101519.50;5075591;28;20025;-67
2024/01/22 04:28:29;;;;;;;17.42;9.10;;;;;;;-5.20;100.00;101412.13;5069326;28;20472;-70
2024/01/22 04:30:54;;;;;;;15.00;9.17;;;;;;;-5.12;100.00;101423.13;5065285;28;20047;-69
2024/01/22 04:33:20;;;;;;;9.83;7.47;;;;;;;-4.69;100.00;101478.03;5066214;28;20105;-68
2024/01/22 04:35:46;;;;;;;16.20;8.63;;;;;;;-4.71;100.00;101459.03;5063393;28;20049;-69
2024/01/22 04:38:11;;;;;;;12.73;8.13;;;;;;;-4.42;100.00;101511.84;5068249;28;20052;-70
2024/01/22 04:40:37;;;;;;;15.30;9.93;;;;;;;-4.46;100.00;101497.25;5066209;28;20048;-74
2024/01/22 04:43:03;;;;;;;12.33;7.07;;;;;;;-4.39;100.00;101498.75;5054801;28;20073;-70
2024/01/22 04:45:29;;;;;;;15.73;8.98;;;;;;;-4.73;100.00;101445.25;5057293;28;20020;-72
2024/01/22 04:47:55;;;;;;;16.00;8.40;;;;;;;-4.51;100.00;101478.34;5058699;28;20152;-70
2024/01/22 04:50:21;;;;;;;13.00;7.75;;;;;;;-4.56;100.00;101488.06;5076617;28;20043;-69
2024/01/22 04:52:47;;;;;;;14.67;8.27;;;;;;;-4.72;100.00;101461.69;5072928;28;20174;-70
2024/01/22 04:55:12;;;;;;;14.27;9.07;;;;;;;-4.56;100.00;101482.84;5076197;28;20524;-71
2024/01/22 04:57:38;;;;;;;20.23;9.43;;;;;;;-4.74;100.00;101451.34;5071672;28;20033;-69
2024/01/22 05:00:05;;;;;;;11.70;7.53;;;;;;;-4.64;100.00;101461.44;5075397;28;20021;-66
2024/01/22 05:02:32;;;;;;;16.75;9.00;;;;;;;-4.66;100.00;101464.09;5064221;28;20048;-68
2024/01/22 05:04:58;;;;;;;17.52;10.98;;;;;;;-4.74;100.00;101459.13;5055124;28;20037;-69
2024/01/22 05:07:24;;;;;;;14.80;8.67;;;;;;;-5.03;100.00;101415.03;5064446;28;20090;-70
2024/01/22 05:10:01;;;;;;;20.98;10.30;;;;;;;-4.85;100.00;101440.44;5066696;28;20059;-70
2024/01/22 05:12:29;;;;;;;18.63;9.40;;;;;;;-4.91;100.00;101437.19;5039350;28;20089;-68
2024/01/22 05:14:55;;;;;;;16.63;10.00;;;;;;;-5.14;100.00;101405.00;5037192;28;20094;-68
2024/01/22 05:17:21;;;;;;;16.03;9.10;;;;;;;-4.98;100.00;101433.91;5036055;28;20444;-69
2024/01/22 05:19:49;;;;;;;14.35;8.77;;;;;;;-5.04;100.00;101414.19;5029613;28;20049;-68
2024/01/22 05:22:15;;;;;;;16.20;9.82;;;;;;;-5.13;100.00;101393.69;5053135;28;20484;-70
2024/01/22 05:24:40;;;;;;;15.10;8.63;;;;;;;-5.07;100.00;101405.63;5045418;28;20049;-68
2024/01/22 05:27:08;;;;;;;13.97;8.10;;;;;;;-5.08;100.00;101388.34;5041072;28;20037;-68
2024/01/22 05:29:33;;;;;;;14.45;8.73;;;;;;;-5.12;100.00;101373.78;5041503;28;20037;-70
2024/01/22 05:31:59;;;;;;;14.40;8.80;;;;;;;-5.22;100.00;101348.97;5037762;28;20048;-69
2024/01/22 05:34:24;;;;;;;15.27;9.90;;;;;;;-5.17;100.00;101354.91;5038677;28;20472;-67
2024/01/22 05:36:50;;;;;;;15.30;9.57;;;;;;;-5.00;100.00;101368.19;5049213;28;20403;-68
2024/01/22 05:39:15;;;;;;;15.63;11.23;;;;;;;-4.85;100.00;101380.69;5052029;28;20421;-67
2024/01/22 05:41:41;;;;;;;20.07;12.83;;;;;;;-4.80;100.00;101357.16;5043367;28;20510;-68
2024/01/22 05:44:08;;;;;;;18.92;13.68;;;;;;;-4.69;100.00;101358.47;5046114;28;20036;-68
2024/01/22 05:46:33;;;;;;;14.98;10.27;;;;;;;-4.55;100.00;101349.38;5052592;28;20136;-67
2024/01/22 05:48:59;;;;;;;16.97;9.10;;;;;;;-4.40;100.00;101359.25;5050790;28;20033;-67
2024/01/22 05:51:25;;;;;;;17.83;10.57;;;;;;;-4.37;100.00;101346.13;5053174;28;20083;-67
2024/01/22 05:53:51;;;;;;;13.13;8.77;;;;;;;-4.55;100.00;101307.78;5053034;28;20044;-68
2024/01/22 05:56:26;;;;;;;13.77;9.50;;;;;;;-4.21;100.00;101334.31;5039974;28;20044;-68
2024/01/22 05:58:53;;;;;;;18.48;10.07;;;;;;;-4.18;100.00;101328.13;5043157;28;20403;-67
2024/01/22 06:01:24;;;;;;;15.52;9.23;;;;;;;-4.23;100.00;101307.50;5050875;28;20040;-68
2024/01/22 06:03:53;;;;;;;16.40;9.95;;;;;;;-4.12;100.00;101313.16;5051609;28;20483;-68
2024/01/22 06:06:19;;;;;;;;;;;;;;;-3.99;100.00;101307.53;5051929;28;20484;-69
2024/01/22 06:08:48;;;;;;;14.23;9.83;;;;;;;-4.03;100.00;101293.78;5042910;28;19916;-68
2024/01/22 06:11:15;;;;;;;13.55;8.65;;;;;;;-4.18;100.00;101266.56;5039301;28;20055;-69
2024/01/22 06:13:44;;;;;;;16.73;9.73;;;;;;;-3.99;100.00;101291.91;5037367;28;20033;-67
2024/01/22 06:16:13;;;;;;;14.40;9.32;;;;;;;-4.01;100.00;101286.75;5050871;28;20040;-69
2024/01/22 06:18:40;;;;;;;;;;;;;;;-3.89;100.00;101303.66;5051164;28;20060;-67
2024/01/22 06:21:06;;;;;;;16.15;9.07;;;;;;;-3.97;100.00;101295.28;5047259;28;19921;-66
2024/01/22 06:23:32;;;;;;;14.23;8.73;;;;;;;-4.00;100.00;101278.06;5031746;28;20041;-68
2024/01/22 06:25:58;;;;;;;13.30;9.17;;;;;;;-3.99;100.00;101266.75;5032367;28;20041;-66
2024/01/22 06:28:31;;;;;;;17.57;8.97;;;;;;;-3.94;100.00;101269.16;5045061;28;20914;-69
2024/01/22 06:30:56;;;;;;;15.10;10.00;;;;;;;-3.93;100.00;101271.69;5032034;28;20477;-69
2024/01/22 06:33:22;;;;;;;17.13;10.07;;;;;;;-3.88;100.00;101266.31;5033618;28;20112;-67
2024/01/22 06:35:49;;;;;;;19.50;10.70;;;;;;;-3.89;100.00;101269.81;5051668;28;20135;-70
2024/01/22 06:38:18;;;;;;;18.05;12.30;;;;;;;-3.83;100.00;101272.19;5050232;28;20064;-67
2024/01/22 06:40:44;;;;;;;18.00;10.90;;;;;;;-3.80;100.00;101262.50;5049525;28;20037;-67
2024/01/22 06:43:10;;;;;;;16.55;10.85;;;;;;;-3.81;100.00;101255.59;5050505;28;20119;-66
2024/01/22 06:45:36;;;;;;;14.55;9.90;;;;;;;-3.88;100.00;101241.16;5051206;28;20040;-67
2024/01/22 06:48:02;;;;;;;21.00;11.10;;;;;;;-3.68;100.00;101261.19;5050334;28;20051;-67
2024/01/22 06:50:27;;;;;;;17.27;10.80;;;;;;;-3.68;100.00;101261.19;5051139;28;20063;-69
2024/01/22 06:52:53;;;;;;;26.83;13.73;;;;;;;-3.66;100.00;101254.19;5050502;28;20362;-67
2024/01/22 06:55:18;;;;;;;29.27;14.00;;;;;;;-3.66;100.00;101243.78;5051299;28;20033;-70
2024/01/22 06:57:44;;;;;;;16.67;10.30;;;;;;;-3.57;100.00;101264.22;5042307;28;20037;-67
2024/01/22 07:00:11;;;;;;;15.63;9.83;;;;;;;-3.55;100.00;101252.00;5045476;28;20045;-68
2024/01/22 07:02:38;;;;;;;14.20;8.85;;;;;;;-3.50;100.00;101244.84;5046245;28;20021;-69
2024/01/22 07:05:05;;;;;;;16.85;10.38;;;;;;;-3.50;100.00;101246.59;5044753;28;20147;-68
2024/01/22 07:07:32;;;;;;;14.35;9.20;;;;;;;-3.43;100.00;101263.69;5041252;28;20457;-69
2024/01/22 07:09:58;;;;;;;13.85;9.23;;;;;;;-3.62;100.00;101219.31;5048431;28;20415;-68
2024/01/22 07:12:24;;;;;;;17.20;10.27;;;;;;;-3.44;100.00;101243.78;5046489;28;20049;-69
2024/01/22 07:14:50;;;;;;;15.37;9.30;;;;;;;-3.59;100.00;101197.50;5050485;28;20059;-70
2024/01/22 07:17:16;;;;;;;17.10;9.20;;;;;;;-3.33;100.00;101225.94;5041441;28;20167;-70
2024/01/22 07:19:44;;;;;;;14.38;9.93;;;;;;;-3.66;100.00;101163.06;5027769;28;20037;-70
2024/01/22 07:22:10;;;;;;;17.75;9.45;;;;;;;-3.32;100.00;101205.94;5046002;28;20066;-68
2024/01/22 07:24:36;;;;;;;15.53;8.90;;;;;;;-3.26;100.00;101208.28;5051392;28;20331;-69
2024/01/22 07:27:02;;;;;;;15.32;9.57;;;;;;;-3.27;100.00;101194.41;5030946;28;20048;-68
2024/01/22 07:29:28;;;;;;;17.97;9.80;;;;;;;-3.23;100.00;101197.75;5048493;28;20037;-70
2024/01/22 07:31:54;;;;;;;13.30;8.67;;;;;;;-3.17;100.00;101208.78;5047659;28;20336;-69
2024/01/22 07:34:20;;;;;;;15.87;8.57;;;;;;;-3.09;100.00;101216.25;5051708;28;20095;-68
2024/01/22 07:36:46;;;;;;;15.13;9.15;;;;;;;-3.16;100.00;101188.78;5039374;28;20163;-71
2024/01/22 07:39:12;;;;;;;15.97;9.53;;;;;;;-3.08;100.00;101189.28;5038059;28;20531;-68
2024/01/22 07:41:40;;;;;;;12.73;7.53;;;;;;;-3.17;100.00;101168.84;5036237;28;20091;-71
2024/01/22 07:44:06;;;;;;;13.45;8.60;;;;;;;-3.23;100.00;101137.84;5040509;28;20087;-69
2024/01/22 07:46:32;;;;;;;15.63;9.88;;;;;;;-2.97;100.00;101186.22;5027144;28;20051;-68
2024/01/22 07:48:58;;;;;;;15.03;9.10;;;;;;;-2.92;100.00;101200.72;5041364;28;20033;-69
2024/01/22 07:51:23;;;;;;;14.45;9.48;;;;;;;-3.12;100.00;101162.53;5042357;28;20127;-69
2024/01/22 07:53:49;;;;;;;15.57;9.00;;;;;;;-2.86;100.00;101186.63;5040549;28;20326;-69
2024/01/22 07:56:16;;;;;;;14.10;8.97;;;;;;;-3.06;100.00;101143.16;5042769;28;20440;-70
2024/01/22 07:58:42;;;;;;;19.10;9.65;;;;;;;-3.03;100.00;101134.38;5041231;28;20053;-69
2024/01/22 08:01:08;;;;;;;14.93;10.03;;;;;;;-2.70;100.00;101181.56;5036441;28;20042;-68
2024/01/22 08:03:34;;;;;;;12.03;8.27;;;;;;;-2.86;100.00;101134.50;5039942;28;20041;-72
2024/01/22 08:05:59;;;;;;;15.77;9.18;;;;;;;-2.90;100.00;101125.94;5065431;28;20041;-69
2024/01/22 08:08:27;;;;;;;13.60;8.87;;;;;;;-2.71;100.00;101156.41;5039985;28;20040;-70
2024/01/22 08:10:52;;;;;;;15.13;7.85;;;;;;;-2.63;100.00;101167.34;5044141;28;20045;-68
2024/01/22 08:13:18;;;;;;;14.70;8.37;;;;;;;-2.65;100.00;101164.78;5039744;28;20068;-69
2024/01/22 08:15:44;;;;;;;13.40;7.57;;;;;;;-2.82;100.00;101123.00;5040242;28;20507;-70
2024/01/22 08:18:11;;;;;;;12.83;8.07;;;;;;;-2.62;100.00;101145.56;5040710;28;20061;-69
2024/01/22 08:20:36;;;;;;;15.45;7.80;;;;;;;-2.55;100.00;101144.38;5041250;28;20707;-71
2024/01/22 08:23:02;;;;;;;12.80;9.17;;;;;;;-2.53;100.00;101148.63;5037186;28;20045;-68
2024/01/22 08:25:28;;;;;;;13.13;9.30;;;;;;;-2.60;100.00;101128.94;5043201;28;20045;-67
2024/01/22 08:27:58;;;;;;;12.63;8.90;;;;;;;-2.69;100.00;101113.72;5037872;28;20124;-71
2024/01/22 08:30:24;;;;;;;18.52;9.73;;;;;;;-2.91;100.00;101076.50;5042159;28;20033;-68
2024/01/22 08:32:51;;;;;;;12.55;8.98;;;;;;;-2.57;100.00;101122.75;5048374;28;20045;-68
2024/01/22 08:35:18;;;;;;;11.90;8.60;;;;;;;-2.54;100.00;101104.34;5035920;28;20463;-68
2024/01/22 08:37:52;;;;;;;10.65;8.00;;;;;;;-2.66;100.00;101060.56;5040386;28;20057;-71
2024/01/22 08:40:21;;;;;;;14.82;8.57;;;;;;;-2.46;100.00;101086.56;5046378;28;20091;-68
2024/01/22 08:42:51;;;;;;;13.05;7.55;;;;;;;-2.41;100.00;101086.34;5039127;28;20484;-66
2024/01/22 08:45:17;;;;;;;15.23;7.50;;;;;;;-2.47;100.00;101081.44;5041018;28;20041;-67
2024/01/22 08:47:46;;;;;;;11.17;8.73;;;;;;;-2.44;100.00;101086.50;5041055;28;20378;-68
2024/01/22 08:50:21;;;;;;;15.40;8.70;;;;;;;-2.44;100.00;101079.53;5036282;28;20034;-71
2024/01/22 08:52:48;;;;;;;15.48;9.13;;;;;;;-2.41;100.00;101083.75;5038768;28;20045;-68
2024/01/22 08:55:15;;;;;;;23.88;11.45;;;;;;;-2.39;100.00;101055.84;5038739;28;20492;-68
2024/01/22 08:57:41;;;;;;;17.40;9.13;;;;;;;-2.39;100.00;101041.03;5034622;28;20630;-68
2024/01/22 09:00:10;;;;;;;18.45;8.57;;;;;;;-2.30;100.00;101045.81;5038064;28;20445;-68
2024/01/22 09:02:39;;;;;;;11.45;7.60;;;;;;;-2.32;100.00;101050.25;5037393;28;20428;-68
2024/01/22 09:08:28;;;;;;;15.73;8.70;;;;;;;-2.66;100.00;100977.16;5035628;28;20053;-67
2024/01/22 09:10:54;;;;;;;11.98;8.07;;;;;;;-2.29;100.00;101034.47;5035685;28;20041;-71
2024/01/22 09:13:20;;;;;;;14.17;7.93;;;;;;;-2.45;100.00;100997.00;5035466;28;20037;-67
2024/01/22 09:15:45;;;;;;;14.48;7.63;;;;;;;-2.33;100.00;101025.06;5042352;28;20034;-71
2024/01/22 09:18:14;;;;;;;11.40;7.90;;;;;;;-2.36;100.00;101017.41;5038339;28;20053;-67
2024/01/22 09:20:40;;;;;;;15.00;7.45;;;;;;;-2.38;100.00;101024.44;5042290;28;20041;-69
2024/01/22 09:23:05;;;;;;;16.27;8.90;;;;;;;-2.31;100.00;101019.81;5036525;28;20041;-69
2024/01/22 09:25:31;;;;;;;16.77;7.80;;;;;;;-2.31;100.00;101012.84;5039953;28;20038;-68
2024/01/22 09:28:00;;;;;;;13.20;7.67;;;;;;;-2.47;100.00;100991.00;5041949;28;20045;-66
2024/01/22 09:30:25;;;;;;;12.77;7.05;;;;;;;-2.41;100.00;101002.91;5038794;28;20477;-69
2024/01/22 09:32:57;;;;;;;12.93;7.33;;;;;;;-2.51;100.00;100989.47;5041021;28;20033;-68
2024/01/22 09:35:23;;;;;;;10.23;7.25;;;;;;;-2.33;100.00;100998.97;5038573;28;21839;-68
2024/01/22 09:37:49;;;;;;;8.07;6.83;;;;;;;-2.26;100.00;100992.56;5036237;28;20068;-67
2024/01/22 09:40:15;;;;;;;14.07;8.90;;;;;;;-2.22;100.00;101020.19;5038456;28;20193;-69
2024/01/22 09:42:41;;;;;;;15.15;9.15;;;;;;;-2.35;100.00;100998.22;5037198;28;20397;-69
2024/01/22 09:45:08;;;;;;;13.70;7.47;;;;;;;-2.26;100.00;100996.94;5036485;28;20033;-70
2024/01/22 09:47:37;;;;;;;10.27;7.20;;;;;;;-2.38;100.00;100945.38;5035987;28;20168;-68
2024/01/22 09:50:03;;;;;;;14.23;7.88;;;;;;;-2.26;100.00;100956.06;5035540;28;20111;-68
2024/01/22 09:52:32;;;;;;;14.15;7.20;;;;;;;-2.14;100.00;100972.00;5042104;28;20099;-66
2024/01/22 09:54:58;;;;;;;10.88;8.05;;;;;;;-2.20;100.00;100953.13;5039223;28;20037;-70
2024/01/22 09:57:26;;;;;;;17.03;9.50;;;;;;;-2.25;100.00;100930.81;5040252;28;20041;-71
2024/01/22 09:59:52;;;;;;;12.77;7.85;;;;;;;-2.12;100.00;100928.41;5034311;28;20037;-68
2024/01/22 10:02:18;;;;;;;11.03;7.70;;;;;;;-2.17;100.00;100931.25;5034502;28;20128;-67
2024/01/22 10:04:44;;;;;;;12.83;8.53;;;;;;;-2.56;100.00;100858.47;5037220;28;20522;-69
2024/01/22 10:07:16;;;;;;;10.98;6.55;;;;;;;-2.20;100.00;100893.13;5062680;28;20437;-69
2024/01/22 10:09:43;;;;;;;10.68;8.40;;;;;;;-2.14;100.00;100902.41;5045783;28;20045;-67
2024/01/22 10:12:08;;;;;;;13.52;8.02;;;;;;;-2.28;100.00;100884.84;5038852;28;20079;-70
2024/01/22 10:14:42;;;;;;;14.60;7.50;;;;;;;-2.16;100.00;100887.75;5041912;28;20135;-67
2024/01/22 10:17:16;;;;;;;14.38;9.20;;;;;;;-2.24;100.00;100875.94;5041801;28;20064;-68
2024/01/22 10:19:45;;;;;;;11.40;8.38;;;;;;;-2.38;100.00;100843.63;5037013;28;20509;-68
2024/01/22 10:22:11;;;;;;;11.63;7.50;;;;;;;-2.15;100.00;100879.00;5037872;28;20036;-68
2024/01/22 10:24:39;;;;;;;14.50;8.88;;;;;;;-2.59;100.00;100809.09;5066273;28;20056;-67
2024/01/22 10:27:15;;;;;;;13.93;8.02;;;;;;;-2.10;100.00;100866.53;5037580;28;20036;-68
2024/01/22 10:29:43;;;;;;;12.48;8.93;;;;;;;-2.07;100.00;100876.81;5042587;28;20156;-69
2024/01/22 10:32:09;;;;;;;11.23;8.02;;;;;;;-2.17;100.00;100844.31;5038428;28;20036;-69
2024/01/22 10:34:50;;;;;;;13.03;8.43;;;;;;;-2.11;100.00;100833.53;5037526;28;20369;-70
2024/01/22 10:37:17;;;;;;;14.13;8.77;;;;;;;-2.12;100.00;100813.59;5034419;28;20041;-68
2024/01/22 10:39:45;;;;;;;13.10;7.13;;;;;;;-2.08;100.00;100839.44;5038947;28;20048;-69
2024/01/22 10:42:16;;;;;;;13.05;8.05;;;;;;;-2.12;100.00;100814.44;5036007;28;20083;-69
2024/01/22 10:44:44;;;;;;;12.45;7.85;;;;;;;-2.10;100.00;100820.41;5052583;28;20504;-69
2024/01/22 10:47:14;;;;;;;12.13;8.07;;;;;;;-2.11;100.00;100813.50;5039277;28;20106;-68
2024/01/22 10:49:43;;;;;;;14.32;9.35;;;;;;;-2.09;100.00;100819.50;5036424;28;20033;-68
2024/01/22 10:52:09;;;;;;;10.20;8.80;;;;;;;-2.07;100.00;100824.63;5035521;28;20144;-68
2024/01/22 10:54:36;;;;;;;15.93;9.97;;;;;;;-2.05;100.00;100814.97;5033297;28;20153;-69
2024/01/22 10:57:10;;;;;;;14.07;9.55;;;;;;;-2.12;100.00;100797.94;5038129;28;20041;-69
2024/01/22 10:59:41;;;;;;;15.35;8.57;;;;;;;-2.20;100.00;100796.59;5033452;28;20049;-68
2024/01/22 11:02:15;;;;;;;11.60;7.85;;;;;;;-2.30;100.00;100777.13;5035890;28;20879;-68
2024/01/22 11:04:45;;;;;;;10.75;7.13;;;;;;;-2.34;100.00;100780.81;5036960;28;20069;-70
2024/01/22 11:07:11;;;;;;;14.07;9.35;;;;;;;-2.26;100.00;100777.81;5036393;28;20071;-68
2024/01/22 11:09:38;;;;;;;13.80;9.48;;;;;;;-2.39;100.00;100759.34;5035064;28;20064;-68